Time;durP1;ratioP1;P1;durP2;ratioP2;P2;SDS_P1;SDS_P2;PMS_P1;PMS_P2;Temp;Humidity;BMP_temperature;BMP_pressure;BME280_temperature;BME280_humidity;BME280_pressure;Samples;Min_cycle;Max_cycle;Signal;HPM_P1;HPM_P2
2022/02/01 00:02:20;;;;;;;8.88;3.77;;;;;;;-0.59;64.86;97988.33;1743167;82;21068;-38
2022/02/01 00:05:03;;;;;;;8.83;3.70;;;;;;;-0.60;64.89;97984.88;1742954;81;20998;-38
2022/02/01 00:10:02;;;;;;;10.63;4.58;;;;;;;-0.57;64.73;97984.23;1743105;82;21125;-38
2022/02/01 00:12:42;;;;;;;9.63;3.67;;;;;;;-0.54;64.67;97992.14;1742267;81;20938;-38
2022/02/01 00:15:19;;;;;;;11.80;4.65;;;;;;;-0.54;64.66;97996.92;1741871;80;20946;-38
2022/02/01 00:33:26;;;;;;;12.33;4.90;;;;;;;-0.48;64.19;98000.94;1743320;82;21037;-39
2022/02/01 00:35:49;;;;;;;10.20;4.30;;;;;;;-0.48;64.43;98000.94;1741926;81;21081;-39
2022/02/01 00:39:00;;;;;;;11.75;4.58;;;;;;;-0.48;64.47;98004.94;1750392;81;21036;-39
2022/02/01 00:40:52;;;;;;;10.68;3.92;;;;;;;-0.48;64.44;98010.81;1744396;81;21390;-39
2022/02/01 00:43:12;;;;;;;10.05;4.20;;;;;;;-0.46;64.46;98012.06;1749138;81;21020;-39
2022/02/01 00:45:39;;;;;;;11.68;4.40;;;;;;;-0.47;64.43;98013.16;1726698;82;21532;-39
2022/02/01 00:48:05;;;;;;;10.03;4.00;;;;;;;-0.45;64.39;98006.20;1726544;83;21837;-39
2022/02/01 00:50:33;;;;;;;14.28;4.35;;;;;;;-0.42;64.27;98008.75;1726604;83;21033;-38
2022/02/01 00:53:00;;;;;;;11.95;4.87;;;;;;;-0.41;64.37;98007.66;1726487;83;21357;-39
2022/02/01 00:55:27;;;;;;;10.28;4.45;;;;;;;-0.44;64.18;98009.84;1726698;81;21032;-39
2022/02/01 00:57:54;;;;;;;11.20;4.95;;;;;;;-0.43;64.42;98001.31;1726690;82;21685;-39
2022/02/01 01:00:20;;;;;;;11.10;4.70;;;;;;;-0.38;64.38;98006.46;1726702;81;21125;-39
2022/02/01 01:02:47;;;;;;;11.78;4.80;;;;;;;-0.34;64.22;98010.61;1756348;81;21020;-39
2022/02/01 01:05:13;;;;;;;14.63;4.70;;;;;;;-0.35;64.04;98007.72;1756665;81;21801;-39
2022/02/01 01:07:40;;;;;;;10.80;4.33;;;;;;;-0.37;64.14;98005.91;1748247;81;21036;-38
2022/02/01 01:10:09;;;;;;;9.95;4.20;;;;;;;-0.40;64.06;98006.56;1755797;81;20953;-38
2022/02/01 01:12:46;;;;;;;13.85;4.70;;;;;;;-0.44;64.22;98007.19;1756846;81;21781;-39
2022/02/01 01:44:53;;;;;;;12.18;4.72;;;;;;;-0.65;64.93;98014.33;1728110;81;21081;-38
2022/02/01 01:55:38;;;;;;;11.08;4.95;;;;;;;-0.69;65.04;98029.38;1739544;82;21548;-39
2022/02/01 01:58:05;;;;;;;10.70;4.62;;;;;;;-0.69;64.92;98033.92;1743567;82;20969;-39
2022/02/01 02:03:00;;;;;;;12.00;5.05;;;;;;;-0.68;64.75;98026.95;1743460;81;21361;-39
2022/02/01 02:05:26;;;;;;;13.00;4.58;;;;;;;-0.65;64.58;98034.30;1743355;82;21115;-39
2022/02/01 02:07:53;;;;;;;12.10;4.60;;;;;;;-0.63;64.39;98034.73;1743308;82;20938;-39
2022/02/01 02:10:26;;;;;;;11.45;4.60;;;;;;;-0.60;64.43;98041.33;1743334;81;20970;-39
2022/02/01 02:13:02;;;;;;;9.90;3.60;;;;;;;-0.60;64.30;98043.44;1743028;81;20962;-39
2022/02/01 02:15:43;;;;;;;11.88;5.10;;;;;;;-0.60;64.24;98035.45;1741754;81;21902;-39
2022/02/01 02:18:01;;;;;;;13.32;4.65;;;;;;;-0.56;64.28;98040.37;1741542;81;21547;-39
2022/02/01 02:20:41;;;;;;;12.65;4.42;;;;;;;-0.54;63.97;98034.19;1743288;82;20922;-39
2022/02/01 02:23:08;;;;;;;10.93;4.70;;;;;;;-0.52;63.74;98044.50;1740498;81;20918;-39
2022/02/01 02:25:37;;;;;;;11.03;4.62;;;;;;;-0.54;63.61;98040.84;1743189;81;21524;-39
2022/02/01 02:28:06;;;;;;;10.25;4.40;;;;;;;-0.54;63.54;98041.39;1743425;82;21099;-39
2022/02/01 02:30:33;;;;;;;11.68;5.05;;;;;;;-0.54;63.46;98044.83;1743200;82;22400;-39
2022/02/01 02:33:05;;;;;;;14.68;5.00;;;;;;;-0.54;63.38;98046.16;1707614;83;21327;-39
2022/02/01 02:35:43;;;;;;;10.50;4.33;;;;;;;-0.53;63.39;98046.38;1707624;84;21563;-38
2022/02/01 02:38:06;;;;;;;10.80;3.80;;;;;;;-0.54;63.14;98048.83;1745099;81;21825;-39
2022/02/01 02:40:46;;;;;;;9.65;4.47;;;;;;;-0.54;63.23;98063.47;1720262;83;21534;-39
2022/02/01 02:45:44;;;;;;;9.93;4.45;;;;;;;-0.53;63.07;98061.02;1720408;83;20964;-38
2022/02/01 02:48:12;;;;;;;9.28;4.30;;;;;;;-0.53;62.97;98051.70;1720545;83;20940;-39
2022/02/01 02:50:39;;;;;;;12.30;4.12;;;;;;;-0.53;62.97;98064.22;1720492;83;20985;-39
2022/02/01 02:53:08;;;;;;;9.85;4.37;;;;;;;-0.54;62.92;98061.35;1720654;83;21057;-39
2022/02/01 02:55:35;;;;;;;11.70;4.75;;;;;;;-0.53;62.89;98062.34;1720704;83;21849;-39
2022/02/01 02:58:02;;;;;;;8.70;3.87;;;;;;;-0.54;62.84;98066.13;1720345;83;21012;-39
2022/02/01 03:00:29;;;;;;;10.58;4.78;;;;;;;-0.54;62.61;98071.45;1720503;83;20937;-39
2022/02/01 03:02:56;;;;;;;10.32;5.08;;;;;;;-0.56;62.69;98076.30;1720419;83;20972;-39
2022/02/01 03:05:22;;;;;;;10.30;4.80;;;;;;;-0.55;62.71;98077.08;1720633;83;21530;-39
2022/02/01 03:07:49;;;;;;;13.65;5.20;;;;;;;-0.59;62.80;98085.48;1720501;83;21103;-39
2022/02/01 03:10:16;;;;;;;11.10;5.20;;;;;;;-0.62;63.04;98082.09;1720374;83;21028;-39
2022/02/01 03:13:07;;;;;;;9.03;4.53;;;;;;;-0.65;63.27;98080.87;1720467;83;20956;-39
2022/02/01 03:15:40;;;;;;;10.78;4.80;;;;;;;-0.67;63.44;98079.06;1716419;83;21099;-38
2022/02/01 03:20:34;;;;;;;11.60;4.60;;;;;;;-0.71;63.75;98084.79;1720804;83;21111;-39
2022/02/01 03:23:00;;;;;;;9.95;4.30;;;;;;;-0.74;63.82;98082.77;1720362;82;21644;-39
2022/02/01 03:25:28;;;;;;;13.83;4.60;;;;;;;-0.75;63.97;98081.20;1720671;83;20941;-39
2022/02/01 03:27:55;;;;;;;11.57;4.70;;;;;;;-0.79;64.01;98081.60;1720559;83;21047;-39
2022/02/01 03:30:23;;;;;;;11.90;4.58;;;;;;;-0.82;64.02;98086.20;1720584;82;21466;-39
2022/02/01 03:32:50;;;;;;;9.95;4.42;;;;;;;-0.83;64.16;98084.67;1720551;83;21148;-39
2022/02/01 03:35:16;;;;;;;8.98;4.28;;;;;;;-0.83;64.19;98083.88;1720803;83;21585;-38
2022/02/01 03:37:43;;;;;;;10.58;4.65;;;;;;;-0.86;64.33;98089.27;1720514;83;21443;-39
2022/02/01 03:40:15;;;;;;;10.65;4.85;;;;;;;-0.86;64.49;98089.27;1715306;83;21001;-38
2022/02/01 03:42:39;;;;;;;11.53;4.92;;;;;;;-0.85;64.58;98094.05;1714835;83;21476;-38
2022/02/01 03:45:07;;;;;;;9.18;4.15;;;;;;;-0.87;64.98;98093.02;1690551;83;21860;-39
2022/02/01 03:47:34;;;;;;;9.78;4.65;;;;;;;-0.87;65.42;98099.12;1721226;83;20981;-38
2022/02/01 03:50:02;;;;;;;9.98;4.55;;;;;;;-0.89;65.64;98103.21;1721504;83;21140;-39
2022/02/01 03:52:28;;;;;;;9.90;4.70;;;;;;;-0.94;65.87;98100.71;1721386;83;20968;-39
2022/02/01 03:54:55;;;;;;;14.50;5.00;;;;;;;-0.99;66.06;98100.88;1739156;82;21072;-38
2022/02/01 03:57:21;;;;;;;9.10;4.70;;;;;;;-1.05;66.17;98093.59;1746247;81;21958;-39
2022/02/01 03:59:48;;;;;;;15.15;5.00;;;;;;;-1.11;66.42;98106.03;1714942;83;21636;-39
2022/02/01 04:02:15;;;;;;;11.28;4.83;;;;;;;-1.19;66.70;98103.61;1715209;83;21515;-39
2022/02/01 04:04:42;;;;;;;16.12;5.15;;;;;;;-1.23;66.79;98107.21;1751236;82;21072;-39
2022/02/01 04:07:09;;;;;;;13.13;5.12;;;;;;;-1.35;66.93;98097.97;1751539;82;21072;-38
2022/02/01 04:09:36;;;;;;;13.15;4.85;;;;;;;-1.33;67.07;98113.08;1751081;82;21174;-39
2022/02/01 04:12:05;;;;;;;17.30;5.72;;;;;;;-1.35;67.16;98111.81;1751262;82;20969;-39
2022/02/01 04:14:33;;;;;;;9.98;4.08;;;;;;;-1.40;67.23;98110.09;1751205;82;21083;-39
2022/02/01 04:17:03;;;;;;;15.43;5.35;;;;;;;-1.43;67.29;98109.39;1751132;82;21504;-38
2022/02/01 04:19:31;;;;;;;12.73;5.03;;;;;;;-1.46;67.39;98110.02;1751162;82;21005;-39
2022/02/01 04:22:01;;;;;;;12.30;5.12;;;;;;;-1.48;67.42;98114.85;1751281;82;21752;-39
2022/02/01 04:24:31;;;;;;;14.05;5.53;;;;;;;-1.48;67.48;98130.80;1751064;82;21508;-38
2022/02/01 04:26:58;;;;;;;17.27;5.62;;;;;;;-1.49;67.42;98131.10;1750887;81;21539;-38
2022/02/01 04:29:25;;;;;;;14.07;5.58;;;;;;;-1.52;67.48;98133.84;1751321;82;21033;-39
2022/02/01 04:31:51;;;;;;;15.88;5.05;;;;;;;-1.52;67.56;98131.19;1750992;82;21036;-39
2022/02/01 04:34:18;;;;;;;14.93;5.40;;;;;;;-1.54;67.59;98132.03;1727763;82;21211;-39
2022/02/01 04:36:45;;;;;;;11.33;4.45;;;;;;;-1.54;67.63;98132.03;1721246;83;21555;-38
2022/02/01 04:39:11;;;;;;;12.47;4.95;;;;;;;-1.54;67.66;98135.23;1718214;83;21057;-39
2022/02/01 04:41:38;;;;;;;13.08;4.87;;;;;;;-1.55;67.67;98141.09;1713497;83;21073;-39
2022/02/01 04:44:05;;;;;;;13.70;5.87;;;;;;;-1.55;67.69;98146.98;1723463;82;21010;-39
2022/02/01 04:46:32;;;;;;;12.65;5.90;;;;;;;-1.58;67.79;98149.69;1707607;84;21779;-38
2022/02/01 04:49:06;;;;;;;14.50;5.70;;;;;;;-1.59;67.76;98142.02;1707302;84;20953;-39
2022/02/01 04:54:07;;;;;;;13.75;5.37;;;;;;;-1.53;67.79;98142.91;1797006;79;22581;-38
2022/02/01 04:56:35;;;;;;;13.72;5.53;;;;;;;-1.64;67.90;98147.48;1756982;81;20949;-38
2022/02/01 04:59:03;;;;;;;21.40;7.42;;;;;;;-1.64;67.88;98150.92;1756817;81;21130;-37
2022/02/01 05:01:37;;;;;;;12.93;5.87;;;;;;;-1.65;67.96;98157.35;1756748;81;20977;-38
2022/02/01 05:04:01;;;;;;;16.60;6.42;;;;;;;-1.66;67.97;98165.08;1756621;81;21004;-37
2022/02/01 05:06:28;;;;;;;19.32;5.95;;;;;;;-1.67;67.97;98169.36;1756830;81;21020;-37
2022/02/01 05:08:57;;;;;;;17.00;6.10;;;;;;;-1.69;68.07;98163.02;1757049;81;21016;-37
2022/02/01 05:11:24;;;;;;;16.67;6.00;;;;;;;-1.70;68.05;98164.67;1757066;81;21540;-38
2022/02/01 05:14:05;;;;;;;13.68;5.75;;;;;;;-1.74;68.01;98159.75;1756782;80;21523;-38
2022/02/01 05:16:31;;;;;;;17.17;6.12;;;;;;;-1.75;68.07;98177.55;1754749;81;20926;-38
2022/02/01 05:19:01;;;;;;;18.00;6.60;;;;;;;-1.79;68.01;98179.23;1755991;81;21464;-38
2022/02/01 05:21:22;;;;;;;15.88;6.30;;;;;;;-1.82;68.06;98174.55;1755497;81;21032;-38
2022/02/01 05:23:49;;;;;;;19.87;7.45;;;;;;;-1.85;68.03;98193.23;1731037;81;21214;-38
2022/02/01 05:26:19;;;;;;;17.15;6.33;;;;;;;-1.91;68.04;98187.02;1727193;82;20988;-38
2022/02/01 05:28:46;;;;;;;15.88;6.15;;;;;;;-1.93;68.00;98197.15;1694530;84;20964;-37
2022/02/01 05:31:12;;;;;;;20.50;7.08;;;;;;;-1.93;68.00;98205.11;1694654;84;21549;-37
2022/02/01 05:33:40;;;;;;;15.83;6.25;;;;;;;-1.96;68.02;98209.72;1701599;82;21048;-38
2022/02/01 05:36:07;;;;;;;19.65;6.75;;;;;;;-1.99;67.97;98215.66;1723423;83;21148;-37
2022/02/01 05:38:34;;;;;;;15.78;6.40;;;;;;;-2.02;68.04;98218.90;1723355;83;21016;-37
2022/02/01 05:41:01;;;;;;;17.40;6.17;;;;;;;-2.06;68.01;98221.39;1723376;83;21046;-38
2022/02/01 05:43:28;;;;;;;16.00;6.28;;;;;;;-2.07;68.27;98225.13;1723462;83;21518;-37
2022/02/01 05:45:57;;;;;;;19.73;6.37;;;;;;;-2.07;68.16;98224.34;1723341;83;21068;-38
2022/02/01 05:48:25;;;;;;;19.45;7.22;;;;;;;-2.10;68.19;98227.07;1723437;83;21155;-37
2022/02/01 05:50:54;;;;;;;21.17;7.22;;;;;;;-2.14;68.26;98231.97;1723683;83;21015;-38
2022/02/01 05:53:20;;;;;;;15.45;7.22;;;;;;;-2.15;68.36;98229.06;1714917;83;21071;-38
2022/02/01 05:55:48;;;;;;;17.65;7.25;;;;;;;-2.18;68.36;98225.70;1680756;84;21005;-38
2022/02/01 05:58:15;;;;;;;17.70;6.62;;;;;;;-2.21;68.48;98231.84;1714472;83;21049;-38
2022/02/01 06:00:42;;;;;;;18.62;7.17;;;;;;;-2.23;68.46;98245.20;1739594;82;21844;-38
2022/02/01 06:03:09;;;;;;;19.00;7.45;;;;;;;-2.24;68.63;98249.72;1739080;80;20938;-37
2022/02/01 06:05:35;;;;;;;24.20;10.15;;;;;;;-2.24;68.59;98250.26;1743645;82;21006;-37
2022/02/01 06:08:02;;;;;;;23.47;10.23;;;;;;;-2.23;68.53;98264.53;1743283;82;20973;-37
2022/02/01 06:10:30;;;;;;;21.07;9.18;;;;;;;-2.23;68.53;98265.86;1743378;81;20986;-37
2022/02/01 06:12:56;;;;;;;20.75;8.50;;;;;;;-2.23;68.59;98271.17;1743266;82;21087;-37
2022/02/01 06:15:26;;;;;;;23.80;8.13;;;;;;;-2.23;68.52;98271.74;1743304;81;21022;-37
2022/02/01 06:17:53;;;;;;;17.67;7.50;;;;;;;-2.23;68.51;98265.86;1742410;81;21535;-37
2022/02/01 06:20:20;;;;;;;22.07;7.78;;;;;;;-2.23;68.55;98271.17;1743569;81;20950;-38
2022/02/01 06:22:47;;;;;;;18.23;7.80;;;;;;;-2.24;68.60;98273.61;1743362;82;21034;-38
2022/02/01 06:25:14;;;;;;;15.75;7.08;;;;;;;-2.21;68.56;98278.30;1743496;82;21140;-38
2022/02/01 06:27:40;;;;;;;21.00;7.83;;;;;;;-2.18;68.56;98282.24;1743196;81;20966;-38
2022/02/01 06:30:09;;;;;;;19.15;7.42;;;;;;;-2.18;68.55;98281.45;1743366;81;21530;-37
2022/02/01 06:32:39;;;;;;;17.67;7.58;;;;;;;-2.17;68.48;98282.45;1707580;83;21029;-38
2022/02/01 06:35:07;;;;;;;20.75;7.00;;;;;;;-2.14;68.48;98286.39;1743516;81;21037;-38
2022/02/01 06:37:34;;;;;;;20.80;8.88;;;;;;;-2.14;68.49;98291.70;1743380;82;21516;-37
2022/02/01 06:40:04;;;;;;;18.40;7.37;;;;;;;-2.12;68.44;98294.83;1743215;81;21512;-38
2022/02/01 06:42:34;;;;;;;15.85;7.47;;;;;;;-2.10;68.44;98297.98;1743323;82;20958;-37
2022/02/01 06:45:02;;;;;;;17.90;6.85;;;;;;;-2.09;68.40;98292.91;1715225;81;21085;-37
2022/02/01 06:47:28;;;;;;;18.62;6.87;;;;;;;-2.08;68.37;98297.91;1713637;83;21049;-38
2022/02/01 06:49:57;;;;;;;15.08;6.97;;;;;;;-2.07;68.41;98307.98;1736165;82;21570;-38
2022/02/01 06:52:23;;;;;;;21.05;7.25;;;;;;;-2.07;68.40;98309.31;1743255;81;21627;-38
2022/02/01 06:54:50;;;;;;;15.88;7.08;;;;;;;-2.06;68.34;98304.25;1743273;82;20962;-38
2022/02/01 06:57:17;;;;;;;18.57;7.03;;;;;;;-2.07;68.36;98314.63;1743261;82;21077;-38
2022/02/01 06:59:43;;;;;;;21.87;8.13;;;;;;;-2.05;68.34;98323.08;1743301;81;21076;-37
2022/02/01 07:02:10;;;;;;;17.07;7.37;;;;;;;-2.04;68.25;98319.34;1743241;82;21087;-38
2022/02/01 07:04:37;;;;;;;23.05;8.33;;;;;;;-2.02;68.26;98319.27;1743311;81;20903;-37
2022/02/01 07:07:04;;;;;;;16.97;7.42;;;;;;;-1.99;68.13;98324.00;1743466;81;20918;-38
2022/02/01 07:09:33;;;;;;;20.43;7.55;;;;;;;-1.97;68.17;98325.79;1743384;82;20961;-38
2022/02/01 07:12:00;;;;;;;15.08;6.75;;;;;;;-1.95;68.09;98321.52;1743480;82;21020;-37
2022/02/01 07:14:26;;;;;;;16.67;7.50;;;;;;;-1.95;68.07;98317.53;1736362;82;21831;-37
2022/02/01 07:16:53;;;;;;;18.35;7.97;;;;;;;-1.94;68.00;98325.20;1735046;82;20973;-38
2022/02/01 07:19:19;;;;;;;20.32;8.30;;;;;;;-1.90;67.97;98328.03;1734725;82;20969;-37
2022/02/01 07:21:47;;;;;;;16.55;7.95;;;;;;;-1.87;67.85;98326.09;1735076;81;21085;-37
2022/02/01 07:24:25;;;;;;;17.95;8.35;;;;;;;-1.85;67.73;98320.73;1734959;82;21011;-38
2022/02/01 07:26:55;;;;;;;12.78;5.97;;;;;;;-1.83;67.67;98321.19;1734105;82;21801;-37
2022/02/01 07:29:16;;;;;;;16.80;7.95;;;;;;;-1.79;67.68;98323.48;1734036;82;21009;-38
2022/02/01 07:31:42;;;;;;;16.52;7.90;;;;;;;-1.75;67.55;98321.02;1735191;82;21030;-37
2022/02/01 07:34:11;;;;;;;21.33;9.25;;;;;;;-1.69;67.47;98324.34;1717631;82;20942;-37
2022/02/01 07:36:37;;;;;;;23.05;9.15;;;;;;;-1.67;67.15;98334.89;1713863;83;21540;-38
2022/02/01 07:39:06;;;;;;;21.48;8.85;;;;;;;-1.68;66.99;98333.31;1730636;82;21478;-38
2022/02/01 07:41:32;;;;;;;20.05;9.50;;;;;;;-1.65;67.05;98334.05;1743567;81;21025;-38
2022/02/01 07:43:59;;;;;;;22.60;9.85;;;;;;;-1.60;67.08;98332.59;1717613;81;21535;-38
2022/02/01 07:46:26;;;;;;;19.50;9.35;;;;;;;-1.52;66.87;98340.36;1713866;83;21540;-38
2022/02/01 07:48:53;;;;;;;25.52;9.15;;;;;;;-1.88;66.49;98281.47;1713490;83;21073;-38
2022/02/01 07:51:19;;;;;;;17.82;7.92;;;;;;;-1.44;66.51;98336.41;1713505;83;21162;-38
2022/02/01 07:53:46;;;;;;;20.05;8.48;;;;;;;-1.40;66.23;98341.35;1725100;81;21084;-38
2022/02/01 07:56:13;;;;;;;17.92;7.37;;;;;;;-1.37;66.09;98347.41;1770960;81;20929;-38
2022/02/01 07:58:40;;;;;;;18.55;7.85;;;;;;;-1.34;66.00;98349.44;1772271;81;20910;-38
2022/02/01 08:01:07;;;;;;;19.15;7.92;;;;;;;-1.32;65.98;98357.12;1772695;80;21551;-38
2022/02/01 08:03:34;;;;;;;17.85;8.00;;;;;;;-1.26;66.04;98364.42;1772214;81;21124;-38
2022/02/01 08:06:01;;;;;;;19.15;8.05;;;;;;;-1.24;65.89;98365.67;1771998;81;20958;-38
2022/02/01 08:08:30;;;;;;;20.52;8.53;;;;;;;-1.18;65.93;98374.30;1758807;81;21027;-37
2022/02/01 08:10:57;;;;;;;18.23;8.00;;;;;;;-1.13;65.75;98381.61;1726674;82;21037;-38
2022/02/01 08:21:15;;;;;;;;;;;;;;;-0.95;64.86;98380.58;1729015;82;20949;-38
2022/02/01 08:23:39;;;;;;;22.65;9.23;;;;;;;-0.93;64.81;98375.75;1726525;81;20421;-38
2022/02/01 08:26:06;;;;;;;19.15;8.75;;;;;;;-0.95;65.03;98390.43;1726531;82;21041;-38
2022/02/01 08:28:33;;;;;;;19.98;10.05;;;;;;;-0.89;64.70;98387.34;1739254;81;22002;-38
2022/02/01 08:30:59;;;;;;;19.98;8.78;;;;;;;-0.82;64.68;98388.20;1756619;81;20929;-38
2022/02/01 08:33:25;;;;;;;17.17;8.40;;;;;;;-0.76;64.57;98380.32;1727891;81;21013;-38
2022/02/01 08:35:52;;;;;;;20.35;8.45;;;;;;;-0.68;64.44;98382.24;1726758;83;21028;-38
2022/02/01 08:38:19;;;;;;;18.65;8.05;;;;;;;-0.64;63.83;98383.19;1726461;83;21553;-38
2022/02/01 08:40:47;;;;;;;22.87;8.78;;;;;;;-0.60;64.22;98388.13;1726260;83;21149;-38
2022/02/01 08:43:14;;;;;;;19.07;7.60;;;;;;;-0.56;64.14;98392.27;1726413;82;20938;-38
2022/02/01 08:45:42;;;;;;;17.05;8.33;;;;;;;-0.54;63.83;98408.19;1726617;83;21022;-38
2022/02/01 08:48:09;;;;;;;18.32;8.70;;;;;;;-0.48;63.69;98409.59;1726471;83;20992;-38
2022/02/01 08:50:37;;;;;;;17.65;8.28;;;;;;;-0.45;63.81;98413.53;1726758;82;21048;-38
2022/02/01 08:53:14;;;;;;;19.80;8.28;;;;;;;-0.45;63.48;98402.33;1725845;83;21206;-38
2022/02/01 08:55:49;;;;;;;19.20;8.55;;;;;;;-0.40;63.35;98401.95;1713374;81;21081;-38
2022/02/01 08:58:07;;;;;;;20.57;8.70;;;;;;;-0.36;63.33;98401.55;1677919;85;21558;-38
2022/02/01 09:00:35;;;;;;;19.65;8.53;;;;;;;-0.35;63.03;98405.25;1713403;83;21029;-38
2022/02/01 09:03:05;;;;;;;19.48;8.50;;;;;;;-0.39;62.88;98414.17;1713584;82;20895;-38
2022/02/01 09:05:33;;;;;;;18.70;8.58;;;;;;;-0.39;63.33;98413.63;1679133;85;21141;-38
2022/02/01 09:08:03;;;;;;;21.73;8.98;;;;;;;-0.37;63.44;98414.63;1716139;82;21015;-38
2022/02/01 09:10:32;;;;;;;15.55;8.08;;;;;;;-0.36;63.25;98413.00;1743177;82;21052;-38
2022/02/01 09:12:59;;;;;;;17.75;7.85;;;;;;;-0.32;63.11;98419.80;1743329;82;21489;-38
2022/02/01 09:15:28;;;;;;;17.30;7.83;;;;;;;-0.30;63.12;98423.75;1743197;82;21029;-38
2022/02/01 09:17:58;;;;;;;19.67;8.45;;;;;;;-0.27;62.96;98401.80;1743275;82;21136;-37
2022/02/01 09:20:25;;;;;;;17.37;8.65;;;;;;;-0.26;62.88;98407.92;1743107;81;21038;-38
2022/02/01 09:22:52;;;;;;;26.60;11.30;;;;;;;-0.25;62.98;98397.51;1716432;81;21551;-38
2022/02/01 09:25:20;;;;;;;19.00;9.55;;;;;;;-0.23;62.89;98405.95;1713575;83;21073;-38
2022/02/01 09:27:48;;;;;;;24.85;9.68;;;;;;;-0.23;62.70;98402.75;1713576;83;21093;-38
2022/02/01 09:30:19;;;;;;;18.20;8.55;;;;;;;-0.23;62.79;98397.96;1713468;82;21137;-38
2022/02/01 09:32:45;;;;;;;21.40;8.98;;;;;;;-0.22;62.99;98398.20;1713695;82;21335;-38
2022/02/01 09:35:14;;;;;;;20.60;8.55;;;;;;;-0.21;62.85;98407.77;1713442;82;20993;-38
2022/02/01 09:37:41;;;;;;;19.87;9.88;;;;;;;-0.20;62.93;98398.69;1713380;83;21073;-39
2022/02/01 09:40:09;;;;;;;17.77;8.80;;;;;;;-0.15;62.65;98398.54;1713643;83;21021;-38
2022/02/01 09:42:38;;;;;;;20.30;9.28;;;;;;;-0.12;62.72;98399.23;1714082;83;21093;-38
2022/02/01 09:45:07;;;;;;;18.00;8.23;;;;;;;-0.09;62.49;98391.94;1713507;82;21020;-38
2022/02/01 09:47:42;;;;;;;19.15;9.65;;;;;;;-0.06;62.45;98392.13;1714036;83;21077;-38
2022/02/01 09:50:09;;;;;;;14.25;8.18;;;;;;;0.03;62.38;98390.78;1679132;85;21538;-38
2022/02/01 09:52:38;;;;;;;22.67;9.10;;;;;;;0.08;62.15;98390.63;1679348;85;21039;-38
2022/02/01 09:55:09;;;;;;;23.77;12.50;;;;;;;0.13;62.24;98387.81;1723098;81;21777;-38
2022/02/01 09:57:37;;;;;;;20.85;9.55;;;;;;;0.19;61.99;98387.89;1726902;83;21026;-38
2022/02/01 10:00:13;;;;;;;16.37;8.20;;;;;;;0.23;61.40;98384.83;1691565;84;21047;-39
2022/02/01 10:02:41;;;;;;;17.65;8.58;;;;;;;0.30;61.32;98397.11;1691308;84;21032;-38
2022/02/01 10:05:11;;;;;;;19.37;8.38;;;;;;;0.35;61.52;98396.95;1691832;84;21545;-38
2022/02/01 10:07:51;;;;;;;17.87;8.30;;;;;;;0.41;60.69;98397.03;1704780;83;21803;-38
2022/02/01 10:10:20;;;;;;;16.97;8.08;;;;;;;0.37;60.34;98401.42;1720487;83;20964;-39
2022/02/01 10:13:15;;;;;;;22.42;8.73;;;;;;;0.33;60.49;98389.83;1720817;83;20988;-39
2022/02/01 10:15:57;;;;;;;15.98;7.50;;;;;;;0.33;60.50;98391.71;1720493;83;20992;-38
2022/02/01 10:18:31;;;;;;;17.55;8.08;;;;;;;0.38;60.57;98396.88;1720692;83;21076;-38
2022/02/01 10:21:11;;;;;;;16.67;7.90;;;;;;;0.48;60.63;98393.89;1720545;83;21619;-39
2022/02/01 10:23:40;;;;;;;13.35;6.83;;;;;;;0.54;60.69;98401.15;1720947;83;20996;-38
2022/02/01 10:26:20;;;;;;;18.85;8.75;;;;;;;0.60;59.41;98399.34;1720519;83;21015;-38
2022/02/01 10:29:04;;;;;;;12.03;6.42;;;;;;;0.66;59.82;98411.42;1720570;83;21001;-39
2022/02/01 10:31:57;;;;;;;18.37;7.87;;;;;;;0.63;59.73;98412.61;1720714;83;21040;-39
2022/02/01 10:37:23;;;;;;;14.18;7.58;;;;;;;0.67;60.20;98408.98;1720557;83;20969;-39
2022/02/01 10:39:55;;;;;;;14.78;7.42;;;;;;;0.73;60.26;98408.24;1720718;83;21024;-39
2022/02/01 10:42:26;;;;;;;18.15;7.17;;;;;;;0.75;59.66;98408.17;1720302;83;21028;-39
2022/02/01 10:44:57;;;;;;;16.42;6.85;;;;;;;0.76;59.35;98410.30;1720873;82;21048;-39
2022/02/01 10:47:41;;;;;;;16.75;6.75;;;;;;;0.80;59.13;98413.89;1720647;83;21181;-39
2022/02/01 10:50:16;;;;;;;15.25;6.83;;;;;;;0.85;58.74;98403.83;1720812;83;21049;-39
2022/02/01 10:52:46;;;;;;;14.33;6.58;;;;;;;0.89;58.06;98389.30;1720442;83;21052;-39
2022/02/01 10:55:13;;;;;;;;;;;;;;;0.92;57.90;98400.66;1714409;83;21005;-39
2022/02/01 10:57:40;;;;;;;12.88;6.55;;;;;;;0.95;58.32;98401.92;1694092;84;20138;-39
2022/02/01 11:00:13;;;;;;;13.45;6.70;;;;;;;0.85;58.57;98407.05;1694216;83;21231;-39
2022/02/01 11:02:43;;;;;;;17.73;6.78;;;;;;;0.90;59.16;98398.88;1694212;84;21078;-39
2022/02/01 11:05:13;;;;;;;14.93;6.63;;;;;;;1.00;58.58;98404.41;1694641;84;21003;-39
2022/02/01 11:07:41;;;;;;;21.57;10.08;;;;;;;1.09;58.24;98419.30;1694115;84;21042;-39
2022/02/01 11:10:11;;;;;;;15.13;7.70;;;;;;;1.11;57.78;98425.11;1694374;84;21011;-39
2022/02/01 11:12:40;;;;;;;23.12;11.05;;;;;;;1.09;57.74;98423.30;1694162;84;20985;-39
2022/02/01 11:15:24;;;;;;;14.95;6.45;;;;;;;1.05;57.46;98417.03;1694297;84;21042;-39
2022/02/01 11:17:52;;;;;;;14.40;6.75;;;;;;;1.05;57.65;98419.70;1707205;84;21037;-39
2022/02/01 11:20:29;;;;;;;10.88;5.75;;;;;;;1.04;57.63;98414.67;1707465;83;21085;-39
2022/02/01 11:23:11;;;;;;;18.57;6.08;;;;;;;1.01;56.76;98409.98;1688583;84;21579;-39
2022/02/01 11:25:44;;;;;;;13.58;5.75;;;;;;;0.95;57.00;98412.05;1678934;85;21972;-39
2022/02/01 11:28:39;;;;;;;13.32;5.55;;;;;;;0.92;56.77;98414.00;1678760;85;21010;-39
2022/02/01 11:31:02;;;;;;;13.53;6.58;;;;;;;0.90;56.71;98409.55;1677922;85;21077;-39
2022/02/01 11:33:41;;;;;;;14.35;7.42;;;;;;;0.88;56.71;98405.06;1697193;84;21050;-39
2022/02/01 11:36:10;;;;;;;10.35;6.00;;;;;;;0.91;56.52;98399.66;1705308;84;21038;-39
2022/02/01 11:38:49;;;;;;;12.88;5.80;;;;;;;0.97;57.13;98401.06;1707567;84;21985;-39
2022/02/01 11:41:16;;;;;;;11.08;5.58;;;;;;;1.02;56.26;98393.64;1682669;84;20997;-39
2022/02/01 11:43:45;;;;;;;12.13;5.20;;;;;;;1.02;55.54;98407.53;1707294;84;21097;-39
2022/02/01 11:46:12;;;;;;;12.45;5.83;;;;;;;1.03;55.42;98403.22;1707473;84;21041;-39
2022/02/01 11:48:41;;;;;;;15.32;5.87;;;;;;;1.06;55.61;98398.59;1645759;84;21069;-39
2022/02/01 11:51:11;;;;;;;11.78;5.97;;;;;;;1.14;56.04;98406.32;1707485;84;21112;-39
2022/02/01 11:53:41;;;;;;;13.53;6.30;;;;;;;1.19;55.33;98407.48;1677229;82;21054;-39
2022/02/01 11:56:10;;;;;;;11.65;6.67;;;;;;;1.17;55.95;98403.78;1678902;85;21642;-39
2022/02/01 11:58:49;;;;;;;12.43;6.60;;;;;;;1.19;56.22;98402.14;1678850;85;21069;-39
2022/02/01 12:01:30;;;;;;;11.45;5.45;;;;;;;1.18;55.29;98396.02;1679164;85;21512;-39
2022/02/01 12:04:10;;;;;;;12.75;6.35;;;;;;;1.15;54.40;98390.54;1721449;83;21302;-40
2022/02/01 12:06:41;;;;;;;11.80;5.92;;;;;;;1.11;54.39;98389.08;1721606;83;20942;-39
2022/02/01 12:09:18;;;;;;;14.28;7.15;;;;;;;1.08;55.19;98392.36;1738185;82;20934;-39
2022/02/01 12:11:42;;;;;;;14.07;6.62;;;;;;;1.07;55.85;98385.45;1714316;83;21028;-39
2022/02/01 12:14:09;;;;;;;16.55;6.42;;;;;;;1.08;55.80;98384.36;1715375;83;21653;-39
2022/02/01 12:16:35;;;;;;;10.35;5.97;;;;;;;1.07;55.05;98397.47;1715468;83;21107;-39
2022/02/01 12:19:06;;;;;;;11.53;6.03;;;;;;;1.08;55.60;98395.03;1715030;83;21844;-39
2022/02/01 12:21:50;;;;;;;5.87;3.60;;;;;;;1.11;54.23;98393.63;1715452;83;20960;-39
2022/02/01 12:24:16;;;;;;;7.47;3.65;;;;;;;1.09;50.19;98398.48;1714316;83;21064;-39
2022/02/01 12:26:43;;;;;;;5.90;3.02;;;;;;;1.03;48.69;98399.21;1715400;83;21044;-39
2022/02/01 12:29:12;;;;;;;6.03;3.35;;;;;;;1.03;48.97;98391.75;1715214;83;21134;-39
2022/02/01 12:31:41;;;;;;;6.10;3.22;;;;;;;1.07;48.99;98400.68;1715548;83;20956;-39
2022/02/01 12:34:14;;;;;;;3.98;2.10;;;;;;;1.08;47.74;98400.37;1715221;83;21475;-39
2022/02/01 12:36:44;;;;;;;4.28;2.22;;;;;;;1.08;46.38;98403.04;1715031;83;20972;-39
2022/02/01 12:39:33;;;;;;;3.50;2.10;;;;;;;1.04;44.64;98391.45;1751245;81;20958;-39
2022/02/01 12:42:05;;;;;;;3.25;1.85;;;;;;;1.05;45.40;98388.23;1751278;81;21598;-39
2022/02/01 12:47:10;;;;;;;4.42;1.98;;;;;;;1.10;45.04;98387.50;1721516;83;21065;-39
2022/02/01 12:49:49;;;;;;;3.58;2.10;;;;;;;1.12;44.93;98394.63;1684419;85;21091;-39
2022/02/01 12:52:23;;;;;;;;;;;;;;;1.12;44.74;98385.27;1689243;85;21027;-39
2022/02/01 12:55:04;;;;;;;5.05;1.90;;;;;;;1.08;44.90;98388.91;1686144;84;21145;-39
2022/02/01 12:57:33;;;;;;;4.65;2.30;;;;;;;0.91;44.35;98392.99;1693985;84;21105;-39
2022/02/01 13:00:05;;;;;;;4.67;1.95;;;;;;;0.88;44.89;98383.72;1694004;84;21564;-39